KBTL/BTL METAR and TAF weather

Enter ICAO airport designator
Station Type Date Time Source
KBTL METAR 2020/09/20 06:53 UTC NOAA

KBTL 200653Z AUTO 15004KT 10SM CLR 09/04 A3040 RMK AO2 SLP297 T00890044


Station Type Date Time Source
KBTL Decoded METAR 2020/09/20 06:53 UTC NOAA

W.K.KELLOGG REGIONAL AIRPORT, MI, United States (KBTL) 42-18N 085-15W 290M
Sep 20, 2020 - 02:53 AM EDT / 2020.09.20 0653 UTC
Wind: from the SSE (150 degrees) at 5 MPH (4 KT):0
Visibility: 10 mile(s):0
Sky conditions: clear
Temperature: 48.0 F (8.9 C)
Dew Point: 39.9 F (4.4 C)
Relative Humidity: 73%
Pressure (altimeter): 30.4 in. Hg (1029 hPa)
ob: KBTL 200653Z AUTO 15004KT 10SM CLR 09/04 A3040 RMK AO2 SLP297 T00890044
cycle: 7

Station Type Date Time Source
KBTL TAF 2020/09/20 06:42 UTC NOAA

TAF KBTL 200540Z 2006/2106 00000KT P6SM SKC
FM201400 12008KT P6SM SKC
FM210100 VRB03KT P6SM SKC

Example: see airport list